createdAt,value
2018-07-08T00:01:55.184Z,16.58
2018-07-08T00:04:24.252Z,16.53
2018-07-08T00:06:58.077Z,16.53
2018-07-08T00:09:27.277Z,16.43
2018-07-08T00:11:56.365Z,16.39
2018-07-08T00:14:25.743Z,16.29
2018-07-08T00:16:54.846Z,16.25
2018-07-08T00:19:23.937Z,16.22
2018-07-08T00:21:53.144Z,16.20
2018-07-08T00:24:22.268Z,16.19
2018-07-08T00:26:52.557Z,16.16
2018-07-08T00:29:21.653Z,16.04
2018-07-08T00:31:50.789Z,16.01
2018-07-08T00:34:19.986Z,15.93
2018-07-08T00:36:49.081Z,15.81
2018-07-08T00:39:19.177Z,15.79
2018-07-08T00:41:48.709Z,15.75
2018-07-08T00:44:17.803Z,15.69
2018-07-08T00:46:47.474Z,15.70
2018-07-08T00:49:16.595Z,15.70
2018-07-08T00:51:45.880Z,15.69
2018-07-08T00:54:15.018Z,15.71
2018-07-08T00:56:44.882Z,15.74
2018-07-08T00:59:15.434Z,15.68
2018-07-08T01:01:44.745Z,15.63
2018-07-08T01:04:14.276Z,15.60
2018-07-08T01:06:43.337Z,15.58
2018-07-08T01:09:12.425Z,15.53
2018-07-08T01:11:41.757Z,15.53
2018-07-08T01:14:10.913Z,15.49
2018-07-08T01:16:41.457Z,15.44
2018-07-08T01:19:10.545Z,15.44
2018-07-08T01:21:39.652Z,15.47
2018-07-08T01:24:08.728Z,15.46
2018-07-08T01:26:38.752Z,15.36
2018-07-08T01:29:08.139Z,15.20
2018-07-08T01:31:37.295Z,15.08
2018-07-08T01:34:06.438Z,14.96
2018-07-08T01:36:35.536Z,14.93
2018-07-08T01:39:05.863Z,14.90
2018-07-08T01:41:35.312Z,14.89
2018-07-08T01:44:04.564Z,14.90
2018-07-08T01:46:33.680Z,14.97
2018-07-08T01:49:03.073Z,14.92
2018-07-08T01:51:33.892Z,14.92
2018-07-08T01:54:03.096Z,14.90
2018-07-08T01:56:32.595Z,14.84
2018-07-08T01:59:01.721Z,14.85
2018-07-08T02:01:31.773Z,14.78
2018-07-08T02:04:00.925Z,14.77
2018-07-08T02:06:30.168Z,14.81
2018-07-08T02:08:59.815Z,14.78
2018-07-08T02:11:29.173Z,14.64
2018-07-08T02:13:58.289Z,14.65
2018-07-08T02:16:27.440Z,14.66
2018-07-08T02:18:56.845Z,14.62
2018-07-08T02:21:25.941Z,14.60
2018-07-08T02:23:55.024Z,14.60
2018-07-08T02:26:24.464Z,14.62
2018-07-08T02:28:53.651Z,14.67
2018-07-08T02:31:22.908Z,14.67
2018-07-08T02:33:52.056Z,14.65
2018-07-08T02:36:21.132Z,14.58
2018-07-08T02:38:50.205Z,14.59
2018-07-08T02:41:19.600Z,14.58
2018-07-08T02:43:49.356Z,14.56
2018-07-08T02:46:18.453Z,14.52
2018-07-08T02:48:47.809Z,14.48
2018-07-08T02:51:16.985Z,14.40
2018-07-08T02:53:46.034Z,14.41
2018-07-08T02:56:15.441Z,14.38
2018-07-08T02:58:44.585Z,14.39
2018-07-08T03:01:14.649Z,14.33
2018-07-08T03:03:43.838Z,14.29
2018-07-08T03:06:12.969Z,14.24
2018-07-08T03:08:42.113Z,13.91
2018-07-08T03:11:12.080Z,13.96
2018-07-08T03:13:41.132Z,13.99
2018-07-08T03:16:10.237Z,14.05
2018-07-08T03:18:39.385Z,14.10
2018-07-08T03:21:08.593Z,14.08
2018-07-08T03:23:37.665Z,13.98
2018-07-08T03:26:07.678Z,13.99
2018-07-08T03:28:36.756Z,13.96
2018-07-08T03:31:05.877Z,13.95
2018-07-08T03:33:35.300Z,13.96
2018-07-08T03:36:04.391Z,13.97
2018-07-08T03:38:33.489Z,14.01
2018-07-08T03:41:02.873Z,14.08
2018-07-08T03:43:31.944Z,14.07
2018-07-08T03:46:01.281Z,14.11
2018-07-08T03:48:30.739Z,14.04
2018-07-08T03:50:59.824Z,14.04
2018-07-08T03:53:28.929Z,14.04
2018-07-08T03:55:58.284Z,14.04
2018-07-08T03:58:28.360Z,14.05
2018-07-08T04:00:57.649Z,14.09
2018-07-08T04:03:26.746Z,14.15
2018-07-08T04:05:55.858Z,14.15
2018-07-08T04:08:24.982Z,14.18
2018-07-08T04:10:54.664Z,14.22
2018-07-08T04:13:23.860Z,14.24
2018-07-08T04:15:53.060Z,14.23
2018-07-08T04:18:22.192Z,13.94
2018-07-08T04:20:51.242Z,14.10
2018-07-08T04:23:20.439Z,14.25
2018-07-08T04:25:49.566Z,14.37
2018-07-08T04:28:18.845Z,14.46
2018-07-08T04:30:49.305Z,14.46
2018-07-08T04:33:18.809Z,14.59
2018-07-08T04:35:48.669Z,14.78
2018-07-08T04:38:17.817Z,14.92
2018-07-08T04:40:46.924Z,15.06
2018-07-08T04:43:15.969Z,14.95
2018-07-08T04:45:45.409Z,15.03
2018-07-08T04:48:14.663Z,15.17
2018-07-08T04:50:43.810Z,15.31
2018-07-08T04:53:12.906Z,15.39
2018-07-08T04:55:43.849Z,15.49
2018-07-08T04:58:13.046Z,15.61
2018-07-08T05:00:42.236Z,15.67
2018-07-08T05:03:11.425Z,15.84
2018-07-08T05:05:40.725Z,15.91
2018-07-08T05:08:09.805Z,16.03
2018-07-08T05:10:39.204Z,16.06
2018-07-08T05:13:08.337Z,16.25
2018-07-08T05:15:37.414Z,16.31
2018-07-08T05:18:07.544Z,16.52
2018-07-08T05:20:38.277Z,16.65
2018-07-08T05:23:08.382Z,16.79
2018-07-08T05:25:37.498Z,16.95
2018-07-08T05:28:06.848Z,17.13
2018-07-08T05:30:36.252Z,17.28
2018-07-08T05:33:05.557Z,17.41
2018-07-08T05:35:34.718Z,17.56
2018-07-08T05:38:04.205Z,17.58
2018-07-08T05:40:35.042Z,17.66
2018-07-08T05:43:04.205Z,17.87
2018-07-08T05:45:33.482Z,18.14
2018-07-08T05:48:02.840Z,18.31
2018-07-08T05:50:32.143Z,18.38
2018-07-08T05:53:02.580Z,18.50
2018-07-08T05:55:31.773Z,18.55
2018-07-08T05:58:01.333Z,18.53
2018-07-08T06:00:30.673Z,18.58
2018-07-08T06:03:00.450Z,18.73
2018-07-08T06:05:29.532Z,18.92
2018-07-08T06:07:58.978Z,18.85
2018-07-08T06:10:28.109Z,18.60
2018-07-08T06:12:57.234Z,18.75
2018-07-08T06:15:26.412Z,18.97
2018-07-08T06:17:56.819Z,19.14
2018-07-08T06:20:25.947Z,19.43
2018-07-08T06:22:55.093Z,19.30
2018-07-08T06:25:24.138Z,19.63
2018-07-08T06:27:54.188Z,19.80
2018-07-08T06:30:23.330Z,20.12
2018-07-08T06:32:52.600Z,20.47
2018-07-08T06:35:21.860Z,20.64
2018-07-08T06:37:51.324Z,21.01
2018-07-08T06:40:20.530Z,21.31
2018-07-08T06:42:49.616Z,21.07
2018-07-08T06:45:18.974Z,20.31
2018-07-08T06:47:48.064Z,20.59
2018-07-08T06:50:17.276Z,20.71
2018-07-08T06:52:46.885Z,21.14
2018-07-08T06:55:16.010Z,21.15
2018-07-08T06:57:45.667Z,21.48
2018-07-08T07:00:15.453Z,21.86
2018-07-08T07:02:44.545Z,22.26
2018-07-08T07:05:13.674Z,22.11
2018-07-08T07:07:43.096Z,22.12
2018-07-08T07:10:12.297Z,22.25
2018-07-08T07:12:41.596Z,22.06
2018-07-08T07:15:10.980Z,22.03
2018-07-08T07:17:40.072Z,22.24
2018-07-08T07:20:09.204Z,22.55
2018-07-08T07:22:38.378Z,22.79
2018-07-08T07:25:08.150Z,22.90
2018-07-08T07:27:37.269Z,23.11
2018-07-08T07:30:06.857Z,23.67
2018-07-08T07:32:35.973Z,23.50
2018-07-08T07:35:05.234Z,23.21
2018-07-08T07:37:34.574Z,22.79
2018-07-08T07:40:03.906Z,24.60
2018-07-08T07:42:33.482Z,27.37
2018-07-08T07:45:02.865Z,28.24
2018-07-08T07:47:32.001Z,31.19
2018-07-08T07:50:01.084Z,31.87
2018-07-08T07:52:30.587Z,32.86
2018-07-08T07:54:59.696Z,32.71
2018-07-08T07:57:28.808Z,31.29
2018-07-08T07:59:58.076Z,30.53
2018-07-08T08:02:27.221Z,31.08
2018-07-08T08:04:56.334Z,31.73
2018-07-08T08:07:25.466Z,30.75
2018-07-08T08:09:54.573Z,30.55
2018-07-08T08:12:23.741Z,29.10
2018-07-08T08:14:53.221Z,30.27
2018-07-08T08:17:22.295Z,32.95
2018-07-08T08:19:51.371Z,34.70
2018-07-08T08:22:20.501Z,33.48
2018-07-08T08:24:49.786Z,31.28
2018-07-08T08:27:19.169Z,33.48
2018-07-08T08:29:48.353Z,33.23
2018-07-08T08:32:17.420Z,34.80
2018-07-08T08:34:54.664Z,37.88
2018-07-08T08:37:25.855Z,33.31
2018-07-08T08:39:56.173Z,36.07
2018-07-08T08:42:25.765Z,35.22
2018-07-08T08:44:56.476Z,37.39
2018-07-08T08:47:26.055Z,36.71
2018-07-08T08:49:55.292Z,38.40
2018-07-08T08:52:24.529Z,40.84
2018-07-08T08:54:54.013Z,42.18
2018-07-08T08:57:23.184Z,40.72
2018-07-08T08:59:52.521Z,41.49
2018-07-08T09:02:21.584Z,42.81
2018-07-08T09:04:50.665Z,42.80
2018-07-08T09:07:20.800Z,42.88
2018-07-08T09:09:49.996Z,43.69
2018-07-08T09:12:19.168Z,43.95
2018-07-08T09:14:48.468Z,42.29
2018-07-08T09:17:17.576Z,44.43
2018-07-08T09:19:46.701Z,43.86
2018-07-08T09:22:16.117Z,39.81
2018-07-08T09:24:45.233Z,39.94
2018-07-08T09:27:14.366Z,37.00
2018-07-08T09:29:43.481Z,36.95
2018-07-08T09:32:12.600Z,36.04
2018-07-08T09:34:41.782Z,38.30
2018-07-08T09:37:11.944Z,40.26
2018-07-08T09:39:40.993Z,41.49
2018-07-08T09:42:10.124Z,41.30
2018-07-08T09:44:39.337Z,40.95
2018-07-08T09:47:08.590Z,39.21
2018-07-08T09:49:38.621Z,36.58
2018-07-08T09:52:07.893Z,38.81
2018-07-08T09:54:36.976Z,38.83
2018-07-08T09:57:06.121Z,40.03
2018-07-08T09:59:35.525Z,40.54
2018-07-08T10:02:04.598Z,40.26
2018-07-08T10:04:33.745Z,40.02
2018-07-08T10:07:02.785Z,40.28
2018-07-08T10:09:31.906Z,41.78
2018-07-08T10:12:01.062Z,41.34
2018-07-08T10:15:59.750Z,41.44
2018-07-08T10:18:28.842Z,41.04
2018-07-08T10:20:57.939Z,41.97
2018-07-08T10:23:27.501Z,43.61
2018-07-08T10:25:56.621Z,43.73
2018-07-08T10:28:26.086Z,42.03
2018-07-08T10:30:56.196Z,38.33
2018-07-08T10:33:25.310Z,34.39
2018-07-08T10:35:57.784Z,34.59
2018-07-08T10:38:26.880Z,32.59
2018-07-08T10:40:56.568Z,33.43
2018-07-08T10:43:25.760Z,32.53
2018-07-08T10:45:54.842Z,35.83
2018-07-08T10:48:23.961Z,35.22
2018-07-08T10:50:53.244Z,34.42
2018-07-08T10:53:22.385Z,33.38
2018-07-08T10:55:52.522Z,33.81
2018-07-08T10:58:21.801Z,34.90
2018-07-08T11:00:51.015Z,33.51
2018-07-08T11:03:20.123Z,34.96
2018-07-08T11:05:49.549Z,36.44
2018-07-08T11:08:20.228Z,37.00
2018-07-08T11:10:49.341Z,38.41
2018-07-08T11:13:18.550Z,38.77
2018-07-08T11:15:47.710Z,38.40
2018-07-08T11:18:16.989Z,39.12
2018-07-08T11:20:46.325Z,39.67
2018-07-08T11:23:16.579Z,36.54
2018-07-08T11:25:45.625Z,37.67
2018-07-08T11:28:14.747Z,37.20
2018-07-08T11:30:43.913Z,38.18
2018-07-08T11:33:13.206Z,38.97
2018-07-08T11:35:42.724Z,40.37
2018-07-08T11:38:11.796Z,38.67
2018-07-08T11:40:40.883Z,38.52
2018-07-08T11:43:10.083Z,38.33
2018-07-08T11:45:39.185Z,39.16
2018-07-08T11:48:08.396Z,39.03
2018-07-08T11:50:37.560Z,38.95
2018-07-08T11:53:06.701Z,39.04
2018-07-08T11:55:35.876Z,36.40
2018-07-08T11:58:05.351Z,37.11
2018-07-08T12:00:36.033Z,37.77
2018-07-08T12:03:05.157Z,36.98
2018-07-08T12:05:34.621Z,35.89
2018-07-08T12:08:03.944Z,35.82
2018-07-08T12:10:33.008Z,37.01
2018-07-08T12:13:02.370Z,37.95
2018-07-08T12:15:31.465Z,38.03
2018-07-08T12:18:00.564Z,38.93
2018-07-08T12:20:29.860Z,37.67
2018-07-08T12:22:59.875Z,37.89
2018-07-08T12:25:28.977Z,38.49
2018-07-08T12:27:59.281Z,39.15
2018-07-08T12:30:29.593Z,39.13
2018-07-08T12:32:58.876Z,38.84
2018-07-08T12:35:28.165Z,38.01
2018-07-08T12:37:57.205Z,37.62
2018-07-08T12:40:26.313Z,36.47
2018-07-08T12:42:56.761Z,37.16
2018-07-08T12:45:26.477Z,34.44
2018-07-08T12:47:55.521Z,36.25
2018-07-08T12:50:24.684Z,36.11
2018-07-08T12:52:53.789Z,36.40
2018-07-08T12:55:22.884Z,36.83
2018-07-08T12:57:52.262Z,38.30
2018-07-08T13:00:21.961Z,39.01
2018-07-08T13:02:51.117Z,39.05
2018-07-08T13:05:20.649Z,38.13
2018-07-08T13:07:49.713Z,38.36
2018-07-08T13:10:19.732Z,38.76
2018-07-08T13:12:49.267Z,37.55
2018-07-08T13:15:18.305Z,36.38
2018-07-08T13:17:47.384Z,37.16
2018-07-08T13:20:17.029Z,37.17
2018-07-08T13:22:46.136Z,37.77
2018-07-08T13:25:15.242Z,37.44
2018-07-08T13:27:44.741Z,38.23
2018-07-08T13:30:13.822Z,37.54
2018-07-08T13:32:43.084Z,38.87
2018-07-08T13:35:12.205Z,38.61
2018-07-08T13:37:41.669Z,39.05
2018-07-08T13:40:10.757Z,38.61
2018-07-08T13:42:40.660Z,37.94
2018-07-08T13:45:09.878Z,34.71
2018-07-08T13:47:38.960Z,36.41
2018-07-08T13:50:08.321Z,37.38
2018-07-08T13:52:37.436Z,36.75
2018-07-08T13:55:07.123Z,37.17
2018-07-08T13:57:36.696Z,37.71
2018-07-08T14:00:06.570Z,37.39
2018-07-08T14:02:35.632Z,37.13
2018-07-08T14:05:05.006Z,37.31
2018-07-08T14:07:34.648Z,37.57
2018-07-08T14:10:04.513Z,37.35
2018-07-08T14:12:33.916Z,36.86
2018-07-08T14:15:05.953Z,37.05
2018-07-08T14:17:35.875Z,37.43
2018-07-08T14:20:05.603Z,38.11
2018-07-08T14:22:34.678Z,37.97
2018-07-08T14:25:04.057Z,38.17
2018-07-08T14:27:33.300Z,38.11
2018-07-08T14:30:02.429Z,37.02
2018-07-08T14:32:32.175Z,36.92
2018-07-08T14:35:01.286Z,37.15
2018-07-08T14:37:30.393Z,36.06
2018-07-08T14:39:59.975Z,36.24
2018-07-08T14:42:30.043Z,36.50
2018-07-08T14:44:59.282Z,37.43
2018-07-08T14:47:28.394Z,37.73
2018-07-08T14:49:57.744Z,37.62
2018-07-08T14:52:26.821Z,36.74
2018-07-08T14:54:56.013Z,37.21
2018-07-08T14:57:25.325Z,36.87
2018-07-08T14:59:54.396Z,37.47
2018-07-08T15:02:23.486Z,36.40
2018-07-08T15:04:53.105Z,36.23
2018-07-08T15:07:22.438Z,35.44
2018-07-08T15:09:51.576Z,35.25
2018-07-08T15:12:21.245Z,36.26
2018-07-08T15:14:51.222Z,36.08
2018-07-08T15:17:20.337Z,35.38
2018-07-08T15:19:49.517Z,35.66
2018-07-08T15:22:18.609Z,36.22
2018-07-08T15:24:48.549Z,35.97
2018-07-08T15:27:17.749Z,34.82
2018-07-08T15:29:47.017Z,35.57
2018-07-08T15:32:16.096Z,35.75
2018-07-08T15:34:45.502Z,35.01
2018-07-08T15:37:14.741Z,35.00
2018-07-08T15:39:43.940Z,33.81
2018-07-08T15:42:13.032Z,32.84
2018-07-08T15:44:42.350Z,32.69
2018-07-08T15:47:11.461Z,32.49
2018-07-08T15:49:40.585Z,32.21
2018-07-08T15:52:09.728Z,31.98
2018-07-08T15:54:39.193Z,31.88
2018-07-08T15:57:08.316Z,31.25
2018-07-08T15:59:37.755Z,31.49
2018-07-08T16:02:06.896Z,30.97
2018-07-08T16:04:36.289Z,30.67
2018-07-08T16:07:05.445Z,30.28
2018-07-08T16:09:34.533Z,30.40
2018-07-08T16:12:03.951Z,29.77
2018-07-08T16:14:33.011Z,29.49
2018-07-08T16:17:02.408Z,29.36
2018-07-08T16:19:31.521Z,29.56
2018-07-08T16:22:00.677Z,29.56
2018-07-08T16:24:30.030Z,28.68
2018-07-08T16:26:59.084Z,28.80
2018-07-08T16:29:28.417Z,28.75
2018-07-08T16:31:57.521Z,29.01
2018-07-08T16:34:26.622Z,29.40
2018-07-08T16:36:55.697Z,29.63
2018-07-08T16:39:24.801Z,28.74
2018-07-08T16:41:53.964Z,28.92
2018-07-08T16:44:23.085Z,29.00
2018-07-08T16:46:52.182Z,29.04
2018-07-08T16:49:21.289Z,28.61
2018-07-08T16:51:50.620Z,28.55
2018-07-08T16:54:20.180Z,28.49
2018-07-08T16:56:49.448Z,28.71
2018-07-08T16:59:20.317Z,28.61
2018-07-08T17:01:49.638Z,28.43
2018-07-08T17:04:18.741Z,28.56
2018-07-08T17:06:47.880Z,28.56
2018-07-08T17:10:46.495Z,27.85
2018-07-08T17:13:16.060Z,27.76
2018-07-08T17:15:45.209Z,27.72
2018-07-08T17:18:14.700Z,27.95
2018-07-08T17:20:43.897Z,27.90
2018-07-08T17:23:13.045Z,27.90
2018-07-08T17:25:42.153Z,27.82
2018-07-08T17:28:11.271Z,27.98
2018-07-08T17:30:40.894Z,27.73
2018-07-08T17:33:10.010Z,27.34
2018-07-08T17:35:39.387Z,27.35
2018-07-08T17:38:08.506Z,27.51
2018-07-08T17:40:37.576Z,27.25
2018-07-08T17:43:06.886Z,27.32
2018-07-08T17:45:35.996Z,26.89
2018-07-08T17:48:05.197Z,26.90
2018-07-08T17:50:34.362Z,26.95
2018-07-08T17:53:03.978Z,26.77
2018-07-08T17:55:33.387Z,26.41
2018-07-08T17:58:03.844Z,26.47
2018-07-08T18:00:32.989Z,26.59
2018-07-08T18:03:02.132Z,26.60
2018-07-08T18:05:31.499Z,26.49
2018-07-08T18:08:00.861Z,26.69
2018-07-08T18:10:30.828Z,26.71
2018-07-08T18:13:01.195Z,26.47
2018-07-08T18:15:31.276Z,26.28
2018-07-08T18:18:01.437Z,26.35
2018-07-08T18:20:31.226Z,26.41
2018-07-08T18:23:00.321Z,26.22
2018-07-08T18:25:29.697Z,26.01
2018-07-08T18:27:58.716Z,25.92
2018-07-08T18:30:27.849Z,25.89
2018-07-08T18:32:56.991Z,25.83
2018-07-08T18:35:26.125Z,25.71
2018-07-08T18:37:55.996Z,25.66
2018-07-08T18:40:25.407Z,25.31
2018-07-08T18:42:54.829Z,25.07
2018-07-08T18:45:23.941Z,25.13
2018-07-08T18:47:53.015Z,25.15
2018-07-08T18:50:22.127Z,25.05
2018-07-08T18:52:51.189Z,25.04
2018-07-08T18:55:21.055Z,25.06
2018-07-08T18:57:50.127Z,24.98
2018-07-08T19:00:19.962Z,24.89
2018-07-08T19:02:49.655Z,24.76
2018-07-08T19:05:18.784Z,24.64
2018-07-08T19:07:47.951Z,24.54
2018-07-08T19:10:17.346Z,24.55
2018-07-08T19:12:47.025Z,24.45
2018-07-08T19:15:16.081Z,24.30
2018-07-08T19:17:45.570Z,24.06
2018-07-08T19:20:14.901Z,23.86
2018-07-08T19:22:44.065Z,23.65
2018-07-08T19:25:14.452Z,23.48
2018-07-08T19:27:44.468Z,23.30
2018-07-08T19:30:13.697Z,23.16
2018-07-08T19:32:42.816Z,23.08
2018-07-08T19:35:12.169Z,22.90
2018-07-08T19:37:41.283Z,22.62
2018-07-08T19:40:10.950Z,22.47
2018-07-08T19:42:40.043Z,22.32
2018-07-08T19:45:09.179Z,22.20
2018-07-08T19:47:38.408Z,22.07
2018-07-08T19:50:08.499Z,21.97
2018-07-08T19:52:37.685Z,21.84
2018-07-08T19:55:06.802Z,21.77
2018-07-08T19:57:35.896Z,21.59
2018-07-08T20:00:05.477Z,21.43
2018-07-08T20:02:34.579Z,21.36
2018-07-08T20:05:04.237Z,21.35
2018-07-08T20:07:33.840Z,21.19
2018-07-08T20:10:03.148Z,21.10
2018-07-08T20:12:32.518Z,20.92
2018-07-08T20:15:02.390Z,20.89
2018-07-08T20:17:32.803Z,20.72
2018-07-08T20:20:01.966Z,20.56
2018-07-08T20:22:31.056Z,20.47
2018-07-08T20:25:00.149Z,20.33
2018-07-08T20:27:29.575Z,20.29
2018-07-08T20:29:59.000Z,20.18
2018-07-08T20:32:28.109Z,20.06
2018-07-08T20:34:58.731Z,19.86
2018-07-08T20:37:27.885Z,19.84
2018-07-08T20:39:57.016Z,19.75
2018-07-08T20:42:26.480Z,19.68
2018-07-08T20:44:55.580Z,19.55
2018-07-08T20:47:25.856Z,19.39
2018-07-08T20:49:54.980Z,19.34
2018-07-08T20:52:24.072Z,19.31
2018-07-08T20:54:53.452Z,19.22
2018-07-08T20:57:22.597Z,19.13
2018-07-08T20:59:52.605Z,19.08
2018-07-08T21:02:21.858Z,18.89
2018-07-08T21:06:20.342Z,18.80
2018-07-08T21:08:49.737Z,18.66
2018-07-08T21:11:19.577Z,18.48
2018-07-08T21:13:48.723Z,18.47
2018-07-08T21:16:18.100Z,18.42
2018-07-08T21:18:47.288Z,18.27
2018-07-08T21:21:16.345Z,18.12
2018-07-08T21:23:45.845Z,18.21
2018-07-08T21:26:14.945Z,18.18
2018-07-08T21:28:44.093Z,18.20
2018-07-08T21:31:14.340Z,18.18
2018-07-08T21:33:43.964Z,18.08
2018-07-08T21:36:13.244Z,18.07
2018-07-08T21:38:43.163Z,17.99
2018-07-08T21:41:12.253Z,17.90
2018-07-08T21:43:41.424Z,17.78
2018-07-08T21:46:10.858Z,17.71
2018-07-08T21:48:39.972Z,17.66
2018-07-08T21:51:09.042Z,17.55
2018-07-08T21:53:39.577Z,17.48
2018-07-08T21:56:08.660Z,17.45
2018-07-08T21:58:37.948Z,17.44
2018-07-08T22:01:19.667Z,17.34
2018-07-08T22:03:49.395Z,17.28
2018-07-08T22:06:19.190Z,17.23
2018-07-08T22:08:48.713Z,17.17
2018-07-08T22:11:17.812Z,17.19
2018-07-08T22:13:47.637Z,17.17
2018-07-08T22:16:17.156Z,17.13
2018-07-08T22:18:46.281Z,17.15
2018-07-08T22:21:15.434Z,17.03
2018-07-08T22:23:44.806Z,16.96
2018-07-08T22:26:13.906Z,16.91
2018-07-08T22:28:43.933Z,16.81
2018-07-08T22:31:13.299Z,16.79
2018-07-08T22:33:42.517Z,16.72
2018-07-08T22:36:11.613Z,16.68
2018-07-08T22:38:40.731Z,16.56
2018-07-08T22:41:09.882Z,16.54
2018-07-08T22:43:38.938Z,16.44
2018-07-08T22:46:08.303Z,16.48
2018-07-08T22:48:37.477Z,16.43
2018-07-08T22:51:06.781Z,16.38
2018-07-08T22:53:36.316Z,16.29
2018-07-08T22:56:05.508Z,16.23
2018-07-08T22:58:34.692Z,16.24
2018-07-08T23:01:20.539Z,16.26
2018-07-08T23:03:54.376Z,16.21
2018-07-08T23:06:23.728Z,16.18
2018-07-08T23:08:53.309Z,16.15
2018-07-08T23:11:23.021Z,16.16
2018-07-08T23:13:53.364Z,16.12
2018-07-08T23:16:22.984Z,16.09
2018-07-08T23:18:52.085Z,16.06
2018-07-08T23:21:21.580Z,16.00
2018-07-08T23:23:50.700Z,15.98
2018-07-08T23:26:20.090Z,15.98
2018-07-08T23:28:49.520Z,15.86
2018-07-08T23:31:19.991Z,15.86
2018-07-08T23:33:49.112Z,15.81
2018-07-08T23:36:18.589Z,15.74
2018-07-08T23:38:47.717Z,15.66
2018-07-08T23:41:17.125Z,15.67
2018-07-08T23:43:46.528Z,15.66
2018-07-08T23:46:16.183Z,15.67
2018-07-08T23:48:45.268Z,15.66
2018-07-08T23:51:14.518Z,15.58
2018-07-08T23:53:43.617Z,15.54
2018-07-08T23:56:12.817Z,15.55
2018-07-08T23:58:41.921Z,15.48
